Tiempo atmosférico en la estación meteorológica de Murcia, Murcia (61 m.)



Fecha
DESCASC
Temp. máxima en grados centígrados (hora)
DESCASC
Temp. mínima en grados centígrados (hora)
DESCASC
Temp. media en grados centígrados
DESCASC
Racha de viento máxima en m/sg (hora)
DESCASC
Velocidad máxima media en intervalos de 10 minutos(hora)
DESCASC
Precipitaciones diarias en mm
DESCASC
Precipitaciones de 00:00 a 06:00 en mm
DESCASC
Precipitaciones de 06:00 a 12:00 en mm
DESCASC
Precipitaciones de 12:00 a 18:00 en mm
DESCASC
Precipitaciones de 18:00 a 24:00 en mm
DESCASC
18-08-2019 38.8 (16:40) 22.4 (07:40) 30.6 7.22 (16:50) 4.44 (22:50) 0 0 0 0 0
17-08-2019 38.2 (16:50) 22.7 (07:00) 30.5 8.89 (19:50) 6.11 (19:30) 0 0 0 0 0
16-08-2019 35.1 (16:40) 21.3 (07:40) 28.2 8.61 (14:10) 5.56 (16:30) 0 0 0 0 0
15-08-2019 35.4 (17:00) 21.5 (00:00) 28.5 8.33 (18:10) 5 (18:20) 0 0 0 0 0
14-08-2019 34.8 (15:40) 22 (00:00) 28.4 8.33 (17:30) 5 (23:10) 0 0 0 0 0
13-08-2019 30.8 (16:30) 24.3 (00:00) 27.5 10.56 (13:40) 6.39 (17:10) 0 0 0 0 0
12-08-2019 36.4 (15:40) 25.6 (00:00) 31 10.56 (16:50) 6.94 (17:20) 0 0 0 0 0
11-08-2019 36.3 (15:00) 25.4 (00:00) 30.8 8.89 (16:00) 5.56 (19:10) 0 0 0 0 0
10-08-2019 39.9 (14:50) 25.9 (00:00) 32.9 9.44 (17:10) 6.67 (15:20) 0 0 0 0 0
09-08-2019 42.6 (16:10) 22.4 (00:00) 32.5 7.5 (11:40) 4.17 (16:30) 0 0 0 0 0
08-08-2019 39.6 (15:20) 23.5 (00:00) 31.5 9.17 (17:50) 4.44 (16:10) 0 0 0 0 0
07-08-2019 40.7 (15:50) 23.9 (00:00) 32.3 8.33 (19:00) 5.83 (19:20) 0 0 0 0 0
06-08-2019 40 (16:10) 24.5 (00:00) 32.3 8.06 (20:50) 5.56 (21:00) 0 0 0 0 0
05-08-2019 36.3 (15:30) 24.3 (00:00) 30.3 11.67 (16:40) 5.83 (16:30) 0 0 0 0 0
04-08-2019 36.2 (17:00) 22.5 (00:00) 29.4 8.61 (16:30) 5.56 (16:40) 0 0 0 0 0
03-08-2019 33.5 (15:10) 23.7 (00:00) 28.6 9.44 (14:30) 5.56 (20:00) 0 0 0 0 0
02-08-2019 33.8 (17:30) 23 (00:00) 28.4 8.61 (13:40) 4.17 (20:00) 0 0 0 0 0
01-08-2019 35.1 (17:40) 21.4 (00:00) 28.2 7.78 (18:50) 5.83 (18:50) 0 0 0 0 0
31-07-2019 31 (15:10) 24 (00:00) 27.5 11.39 (16:10) 6.94 (15:20) 0 0 0 0 0
30-07-2019 34.3 (12:10) 22.2 (00:00) 28.3 11.39 (13:50) 6.94 (16:10) 0 0 0 0 0
29-07-2019 35.3 (15:10) 22.1 (00:00) 28.7 7.5 (16:40) 4.72 (23:30) 0 0 0 0 0
28-07-2019 34.1 (14:20) 22.4 (00:00) 28.2 8.89 (16:10) 5.56 (01:10) 0 0 0 0 0
27-07-2019 37.9 (16:00) 22.4 (00:00) 30.2 13.06 (17:20) 8.06 (17:20) 0 0 0 0 0
26-07-2019 37.5 (15:30) 22.1 (00:00) 29.8 8.33 (18:20) 4.44 (22:40) 0 0 0 0 0
25-07-2019 36.1 (15:00) 22 (00:00) 29 10 (15:00) 6.39 (17:00) 0 0 0 0 0
24-07-2019 36.8 (14:00) 22.6 (00:00) 29.7 9.72 (15:40) 6.39 (15:40) 0 0 0 0 0
23-07-2019 37 (15:40) 22.3 (00:00) 29.6 9.72 (14:10) 5.83 (14:10) 0 0 0 0 0
22-07-2019 34.6 (15:20) 23.5 (00:00) 29 11.11 (15:50) 7.5 (15:40) 0 0 0 0 0

Gráficas

Temp. máximas Temp. mínimas Temp. medias Precipitaciones Rachas de viento máximas Velocidades máximas media en intervalos de 10 minutos

Datos horarios

Fecha y hora oficial Temperatura (ºC) Velocidad del viento (km/h) Dirección del viento Racha (km/h) Dirección de racha Precipitación (mm) Presión (hPa) Tendencia (hPa) Humedad (%)
2019-08-20 23:00:00 26.4 9 Norte 24 Nordeste 0 1011.3 1.8 71
2019-08-20 22:00:00 27.1 17 Este 33 Este 0 1010.8 2 70
2019-08-20 21:00:00 27.5 21 Este 35 Este 0 1010.1 1.8 70
2019-08-20 20:00:00 28.4 20 Este 34 Este 0 1009.5 2 68
2019-08-20 19:00:00 29.4 20 Este 39 Este 0 1008.8 1.4 60
2019-08-20 18:00:00 31.3 23 Este 41 Este 0 1008.3 0.5 54
2019-08-20 17:00:00 32.1 22 Este 35 Este 0 1007.5 -0.4 50
2019-08-20 16:00:00 34.1 17 Este 28 Este 0 1007.4 -1 45
2019-08-20 15:00:00 33.3 18 Nordeste 27 Nordeste 0 1007.8 -0.6 48
2019-08-20 14:00:00 33.7 10 Nordeste 27 Nordeste 0 1007.9 -0.3 44
2019-08-20 13:00:00 32.3 11 Este 21 Este 0 1008.4 0.3 47
2019-08-20 12:00:00 31.5 8 Sudeste 17 Nordeste 0 1008.4 0.7 53
2019-08-20 11:00:00 29.4 9 Este 16 Este 0 1008.2 1 63
2019-08-20 10:00:00 28.4 5 Sudeste 12 Sudeste 0 1008.1 1.2 70
2019-08-20 09:00:00 26.3 5 Noroeste 8 Noroeste 0 1007.7 0.8 82
2019-08-20 08:00:00 24.6 2 Sudeste 6 Oeste 0 1007.2 0.4 84
2019-08-20 07:00:00 24.7 2 Sudoeste 5 Nordeste 0 1006.9 -0.1 87
2019-08-20 06:00:00 24.8 3 Nordeste 9 Nordeste 0 1006.9 -0.4 87
2019-08-20 05:00:00 25.2 5 Nordeste 8 Nordeste 0 1006.8 -0.4 86
2019-08-20 04:00:00 25.8 4 Este 8 Nordeste 0 1007 -0.6 84
2019-08-20 03:00:00 25.8 4 Nordeste 9 Nordeste 0 1007.3 -0.3 83
2019-08-20 02:00:00 26.5 6 Este 12 Este 0 1007.2 -0.3 80
2019-08-20 01:00:00 26.7 6 Este 12 Este 0 1007.6 0.5 80
2019-08-20 00:00:00 26.9 10 Nordeste 16 Nordeste 0 1007.6 1.2 81
2019-08-19 23:00:00 27.1 10 Nordeste 26 Este 0 1007.5 1.6 78
2019-08-19 22:00:00 27.3 13 Este 28 Este 0 1007.1 1.6 75
2019-08-19 21:00:00 28 16 Este 31 Este 0 1006.4 1.1 71
2019-08-19 20:00:00 29.4 21 Este 36 Nordeste 0 1005.9 0.4 65
2019-08-19 19:00:00 31.3 22 Nordeste 36 Nordeste 0 1005.5 -0.3 56
2019-08-19 18:00:00 32.9 22 Este 40 Nordeste 0 1005.3 -0.6 44
2019-08-19 17:00:00 33.9 21 Este 38 Nordeste 0 1005.5 -0.6 37
2019-08-19 16:00:00 34.1 24 Nordeste 40 Nordeste 0 1005.8 -0.8 43
2019-08-19 15:00:00 33.9 24 Este 40 Este 0 1005.9 -0.6 44
2019-08-19 14:00:00 34.6 17 Este 32 Este 0 1006.1 -0.1 38
2019-08-19 13:00:00 33.9 15 Este 28 Este 0 1006.6 0.6 43
2019-08-19 12:00:00 33.1 13 Este 20 Este 0 1006.5 1 37
2019-08-19 11:00:00 32 5 Norte 10 Norte 0 1006.2 0.9 32
2019-08-19 10:00:00 28.3 4 Sudoeste 8 Sur 0 1006 1 48
2019-08-19 09:00:00 25.6 4 Oeste 13 Noroeste 0 1005.5 0.6 54
2019-08-19 08:00:00 23.4 4 Oeste 9 Oeste 0 1005.3 0.5 66
2019-08-19 07:00:00 23.2 3 Sur 9 Oeste 0 1005 0 68
2019-08-19 06:00:00 24.2 7 Oeste 11 Oeste 0 1004.9 -0.4 64
2019-08-19 05:00:00 24.7 3 Sudoeste 7 Oeste 0 1004.8 -0.7 68
2019-08-19 04:00:00 24.9 4 Oeste 8 Oeste 0 1005 -0.4 73
2019-08-19 03:00:00 26 4 Sur 7 Sudeste 0 1005.3 0.1 67
2019-08-19 02:00:00 26.4 2 Sudeste 10 Nordeste 0 1005.5 0.6 77
2019-08-19 01:00:00 26.9 6 Este 14 Nordeste 0 1005.4 1.4 74
2019-08-19 00:00:00 27.6 9 Nordeste 21 Nordeste 0 1005.2 1.9 67
2019-08-18 23:00:00 28.9 13 Nordeste 23 Nordeste 0 1004.9 2 55
2019-08-18 22:00:00 29.7 13 Nordeste 22 Nordeste 0 1004 1.4 50
2019-08-18 21:00:00 33.5 8 Nordeste 16 Nordeste 0 1003.3 0.4 37
2019-08-18 20:00:00 35.9 10 Sudeste 24 Sudeste 0 1002.9 -0.4 26
2019-08-18 19:00:00 37.9 13 Sudeste 23 Sudeste 0 1002.6 -1.1 23
2019-08-18 18:00:00 38.5 11 Sudeste 24 Sudeste 0 1002.9 -1.2 24
2019-08-18 17:00:00 38.5 11 Sudeste 26 Sudeste 0 1003.3 -1.3 30
2019-08-18 16:00:00 37.9 13 Sudeste 25 Sudeste 0 1003.7 -1.5 33
2019-08-18 15:00:00 37.6 13 Sudeste 24 Este 0 1004.1 -1.5 29
2019-08-18 14:00:00 36.6 12 Este 22 Nordeste 0 1004.6 -1.1 33
2019-08-18 13:00:00 35 8 Este 19 Nordeste 0 1005.2 -0.5 32
2019-08-18 12:00:00 33.2 8 Nordeste 16 Este 0 1005.6 0.2 32
2019-08-18 11:00:00 30.6 4 Oeste 11 Noroeste 0 1005.7 0.4 38
2019-08-18 10:00:00 27 5 Oeste 8 Oeste 0 1005.7 0.6 58
2019-08-18 09:00:00 24.5 6 Oeste 9 Oeste 0 1005.4 0.5 63
2019-08-18 08:00:00 22.6 3 Oeste 8 Oeste 0 1005.3 0.1 69
2019-08-18 07:00:00 22.8 5 Oeste 10 Oeste 0 1005.1 -0.6 76
2019-08-18 06:00:00 23.2 0 Calma 4 Sudeste 0 1004.9 -1.2 86
2019-08-18 05:00:00 22.8 0 Calma 5 Sur 0 1005.2 -1.2 77
2019-08-18 04:00:00 24.1 0 Calma 4 Este 0 1005.7 -0.7 83
2019-08-18 03:00:00 25.1 0 Calma 10 Nordeste 0 1006.1 -0.3 85
2019-08-18 02:00:00 25.1 7 Nordeste 10 Nordeste 0 1006.4 0.2 78
2019-08-18 01:00:00 26 6 Nordeste 15 Nordeste 0 1006.4 0.8 76
2019-08-18 00:00:00 26.8 9 Nordeste 19 Nordeste 0 1006.4 1.5 67
2019-08-17 23:00:00 27.8 12 Nordeste 23 Nordeste 0 1006.2 1.6 55
2019-08-17 22:00:00 28.8 17 Nordeste 25 Nordeste 0 1005.6 0.9 54
2019-08-17 21:00:00 30.4 19 Nordeste 30 Nordeste 0 1004.9 -0.3 45
2019-08-17 20:00:00 32.7 18 Nordeste 32 Nordeste 0 1004.6 -0.8 41
2019-08-17 19:00:00 36.2 12 Este 21 Este 0 1004.7 -1.3 34
2019-08-17 18:00:00 37.2 10 Sudeste 24 Este 0 1005.2 -1.5 34
2019-08-17 17:00:00 37.9 14 Este 26 Este 0 1005.4 -2.1 34
2019-08-17 16:00:00 37.9 9 Este 22 Este 0 1006 -2.2 31
2019-08-17 15:00:00 37.5 10 Este 24 Nordeste 0 1006.7 -2.1 29
2019-08-17 14:00:00 35.9 12 Este 19 Este 0 1007.5 -1.6 30
2019-08-17 13:00:00 33.9 10 Este 16 Este 0 1008.2 -1.2 38
2019-08-17 12:00:00 31.8 6 Sudeste 11 Sudeste 0 1008.8 -0.3 47
2019-08-17 11:00:00 28.9 3 Oeste 9 Sudeste 0 1009.1 0.3 64
2019-08-17 10:00:00 26.1 5 Sur 13 Oeste 0 1009.4 0.9 76
2019-08-17 09:00:00 24.4 8 Noroeste 11 Oeste 0 1009.1 0.9 86
2019-08-17 08:00:00 23.4 6 Oeste 8 Oeste 0 1008.8 0.5 87
2019-08-17 07:00:00 22.8 2 Oeste 5 Sur 0 1008.5 -0.3 88
2019-08-17 06:00:00 23.2 3 Noroeste 7 Noroeste 0 1008.2 -0.9 90
2019-08-17 05:00:00 23.5 4 Oeste 6 Noroeste 0 1008.3 -1 88
2019-08-17 04:00:00 24 3 Sudeste 9 Este 0 1008.8 -0.7 89
2019-08-17 03:00:00 24.4 5 Este 15 Nordeste 0 1009.1 -0.4 89
2019-08-17 02:00:00 24.7 9 Nordeste 15 Nordeste 0 1009.3 -0.3 88
2019-08-17 01:00:00 25 11 Nordeste 17 Nordeste 0 1009.5 0.5 86
2019-08-17 00:00:00 25.4 12 Nordeste 19 Nordeste 0 1009.5 1.1 83
2019-08-16 23:00:00 26 11 Nordeste 24 Nordeste 0 1009.6 1.8 78
2019-08-16 22:00:00 27 17 Nordeste 26 Nordeste 0 1009 1.4 71
2019-08-16 21:00:00 28.4 17 Nordeste 28 Nordeste 0 1008.4 0.7 63
2019-08-16 20:00:00 31.4 11 Este 21 Sudeste 0 1007.8 -0.4 49
2019-08-16 19:00:00 32.8 12 Sudeste 24 Sudeste 0 1007.6 -1.1 45
2019-08-16 18:00:00 34.1 12 Sudeste 24 Sur 0 1007.7 -1.6 40
2019-08-16 17:00:00 34.8 13 Sudeste 31 Nordeste 0 1008.2 -1.6 33
2019-08-16 16:00:00 34.7 19 Este 31 Nordeste 0 1008.7 -1.9 38
2019-08-16 15:00:00 34.4 17 Este 31 Nordeste 0 1009.3 -2 41
2019-08-16 14:00:00 33.2 12 Nordeste 22 Nordeste 0 1009.8 -1.7 42
2019-08-16 13:00:00 31.6 11 Este 22 Este 0 1010.6 -1 47
2019-08-16 12:00:00 30.2 6 Este 18 Nordeste 0 1011.3 -0.2 50
2019-08-16 11:00:00 28.2 9 Nordeste 15 Nordeste 0 1011.5 0.4 64
2019-08-16 10:00:00 26.4 4 Sur 12 Oeste 0 1011.6 1 66
2019-08-16 09:00:00 24 2 Sudoeste 9 Noroeste 0 1011.5 1.1 75
2019-08-16 08:00:00 22 3 Noroeste 6 Noroeste 0 1011.1 0.9 83
2019-08-16 07:00:00 22.1 3 Noroeste 5 Noroeste 0 1010.6 0.4 84
2019-08-16 06:00:00 22.5 4 Sur 7 Este 0 1010.4 0 76
2019-08-16 05:00:00 23 5 Nordeste 10 Este 0 1010.2 -0.4 85
2019-08-16 04:00:00 23.4 6 Nordeste 10 Nordeste 0 1010.2 -0.4 83
2019-08-16 03:00:00 23.9 6 Nordeste 15 Nordeste 0 1010.4 -0.2 81
2019-08-16 02:00:00 24.4 9 Nordeste 16 Nordeste 0 1010.6 0 79
2019-08-16 01:00:00 24.9 9 Nordeste 17 Este 0 1010.6 0.6 77
2019-08-16 00:00:00 25.5 11 Nordeste 19 Nordeste 0 1010.6 1.3 72
2019-08-15 23:00:00 26.3 13 Nordeste 23 Nordeste 0 1010.6 1.7 66
2019-08-15 22:00:00 27.4 14 Nordeste 24 Nordeste 0 1010 1.2 59
2019-08-15 21:00:00 29.8 8 Este 18 Sudeste 0 1009.3 0.9 49
2019-08-15 20:00:00 31.2 11 Este 23 Sudeste 0 1008.9 0.3 45
2019-08-15 19:00:00 32.6 14 Sudeste 30 Sudeste 0 1008.8 0 41
2019-08-15 18:00:00 34.2 13 Sudeste 25 Sudeste 0 1008.4 -0.9 36
2019-08-15 17:00:00 35.2 11 Sudeste 27 Este 0 1008.6 -1.1 34
2019-08-15 16:00:00 35 15 Este 28 Este 0 1008.8 -1.7 35
2019-08-15 15:00:00 35.1 10 Este 25 Nordeste 0 1009.3 -1.9 35
2019-08-15 14:00:00 34.3 12 Este 23 Nordeste 0 1009.7 -1.7 34
2019-08-15 13:00:00 32.3 11 Este 20 Este 0 1010.5 -1 43
2019-08-15 12:00:00 30.1 6 Este 15 Nordeste 0 1011.2 -0.3 52
2019-08-15 11:00:00 28.3 8 Este 12 Este 0 1011.4 0.3 61
2019-08-15 10:00:00 26.5 3 Sudeste 8 Sur 0 1011.5 0.8 73
2019-08-15 09:00:00 24.4 0 Calma 5 Sur 0 1011.5 1.2 79
2019-08-15 08:00:00 22.1 0 Calma 4 Noroeste 0 1011.1 0.9 86
2019-08-15 07:00:00 21.8 0 Calma 5 Nordeste 0 1010.7 0.3 86
2019-08-15 06:00:00 22.6 2 Sur 5 Sudoeste 0 1010.3 0 83
2019-08-15 05:00:00 23.3 2 Sudeste 8 Nordeste 0 1010.2 -0.6 83
2019-08-15 04:00:00 23.5 5 Nordeste 9 Este 0 1010.4 -0.5 88
2019-08-15 03:00:00 24.1 7 Este 10 Nordeste 0 1010.3 -0.6 86
2019-08-15 02:00:00 24.5 6 Nordeste 14 Nordeste 0 1010.8 0.2 84
2019-08-15 01:00:00 24.9 10 Nordeste 19 Nordeste 0 1010.9 1 82
2019-08-15 00:00:00 25.4 13 Nordeste 27 Nordeste 0 1010.9 1.7 79
2019-08-14 23:00:00 26.1 14 Nordeste 27 Nordeste 0 1010.6 1.8 74
2019-08-14 22:00:00 28 13 Nordeste 19 Nordeste 0 1009.9 1.1 62
2019-08-14 21:00:00 30.4 7 Sudeste 17 Sudeste 0 1009.2 0.3 49
2019-08-14 20:00:00 32 9 Sudeste 21 Sudeste 0 1008.8 -0.1 44
2019-08-14 19:00:00 33.1 12 Sudeste 24 Sudeste 0 1008.8 -0.6 41
2019-08-14 18:00:00 33.2 14 Este 30 Sudeste 0 1008.9 -1.2 42
2019-08-14 17:00:00 34.3 11 Sudeste 28 Sudeste 0 1008.9 -1.9 42
2019-08-14 16:00:00 34.1 8 Este 21 Sudeste 0 1009.4 -2.1 42
2019-08-14 15:00:00 33.7 9 Este 21 Sudeste 0 1010.1 -2.1 41
2019-08-14 14:00:00 32.6 9 Este 22 Este 0 1010.8 -1.8 44
2019-08-14 13:00:00 30.9 9 Este 17 Este 0 1011.5 -1.2 50
2019-08-14 12:00:00 29.7 4 Sudeste 14 Sur 0 1012.2 -0.4 53
2019-08-14 11:00:00 28.3 5 Sudeste 10 Sur 0 1012.6 0.1 59
2019-08-14 10:00:00 26.2 4 Oeste 9 Noroeste 0 1012.7 0.6 67
2019-08-14 09:00:00 24.1 6 Sur 9 Sudeste 0 1012.6 0.9 73
2019-08-14 08:00:00 22.4 3 Oeste 5 Oeste 0 1012.5 0.8 79
2019-08-14 07:00:00 22.1 3 Oeste 6 Noroeste 0 1012.1 0.4 81
2019-08-14 06:00:00 22.4 0 Calma 3 Este 0 1011.7 -0.3 81
2019-08-14 05:00:00 22.7 3 Nordeste 10 Nordeste 0 1011.7 -0.4 79
2019-08-14 04:00:00 23 5 Nordeste 7 Nordeste 0 1011.7 -0.4 79
2019-08-14 03:00:00 23.4 6 Nordeste 9 Nordeste 0 1012 0 77
2019-08-14 02:00:00 24 6 Este 9 Este 0 1012.1 0.1 76
2019-08-14 01:00:00 24.3 7 Este 10 Nordeste 0 1012.1 0.8 74
2019-08-14 00:00:00 24.6 6 Este 12 Este 0 1012 1.5 73
2019-08-13 23:00:00 25.1 8 Este 17 Este 0 1012 2.2 71
2019-08-13 22:00:00 25.6 11 Este 23 Este 0 1011.3 1.6 68
2019-08-13 21:00:00 26.2 15 Nordeste 24 Nordeste 0 1010.5 1 63
2019-08-13 20:00:00 27.6 15 Este 31 Este 0 1009.8 0.2 58
2019-08-13 19:00:00 28.6 17 Este 28 Este 0 1009.7 -0.1 55
2019-08-13 18:00:00 28.7 19 Este 37 Este 0 1009.5 -0.9 52
2019-08-13 17:00:00 30.5 21 Este 32 Este 0 1009.6 -1.3 47
2019-08-13 16:00:00 30.5 18 Este 37 Este 0 1009.8 -1.3 46
2019-08-13 15:00:00 30.3 21 Este 37 Este 0 1010.4 -0.9 48
2019-08-13 14:00:00 29.6 21 Este 38 Este 0 1010.9 0 52
2019-08-13 13:00:00 27.8 22 Este 34 Este 0 1011.1 0.4 63
2019-08-13 12:00:00 27.1 22 Nordeste 37 Nordeste 0 1011.3 0.7 68
2019-08-13 11:00:00 27.4 17 Este 34 Nordeste 0 1010.9 0.7 66
2019-08-13 10:00:00 27.6 15 Nordeste 26 Este 0 1010.7 1.2 60
2019-08-13 09:00:00 25.7 11 Nordeste 24 Este 0 1010.6 1.4 67
2019-08-13 08:00:00 25.1 10 Este 21 Este 0 1010.2 1.2 70
2019-08-13 07:00:00 24.7 0 Calma 6 Noroeste 0 1009.5 0.2 79
2019-08-13 06:00:00 24.6 4 Noroeste 10 Noroeste 0 1009.2 -0.7 79
2019-08-13 05:00:00 24.5 5 Noroeste 9 Norte 0 1009 -1.5 79
2019-08-13 04:00:00 24.6 6 Nordeste 9 Nordeste 0 1009.3 -1 80
2019-08-13 03:00:00 25 5 Este 16 Este 0 1009.9 -0.2 79
2019-08-13 02:00:00 25.5 8 Este 17 Este 0 1010.5 1.2 79
2019-08-13 01:00:00 25.9 12 Este 23 Este 0 1010.3 1.9 78
2019-08-13 00:00:00 26.1 14 Este 23 Sudeste 0 1010.1 2.8 78
2019-08-12 23:00:00 26.3 16 Este 26 Este 0 1009.3 3 77
2019-08-12 22:00:00 26.7 12 Este 25 Este 0 1008.4 2.5 75
2019-08-12 21:00:00 27.6 16 Este 27 Este 0 1007.3 1.4 68
2019-08-12 20:00:00 28.9 17 Este 34 Este 0 1006.3 0.5 61
2019-08-12 19:00:00 29.8 22 Este 35 Este 0 1005.9 0.3 57
2019-08-12 18:00:00 30.1 23 Este 35 Nordeste 0 1005.9 -0.4 54
2019-08-12 17:00:00 31.8 22 Este 38 Este 0 1005.8 -0.8 48
2019-08-12 16:00:00 35.9 5 Sudeste 17 Sur 0 1005.6 -1.6 15
2019-08-12 15:00:00 34.7 7 Sur 19 Oeste 0 1006.3 -0.8 16
2019-08-12 14:00:00 34.4 9 Noroeste 29 Oeste 0 1006.6 -0.6 15
2019-08-12 13:00:00 33.8 13 Noroeste 28 Oeste 0 1007.2 0.5 16
2019-08-12 12:00:00 32.5 16 Noroeste 31 Oeste 0 1007.1 0.6 18
2019-08-12 11:00:00 30.7 17 Oeste 30 Noroeste 0 1007.2 1.3 21
2019-08-12 10:00:00 29 18 Oeste 27 Noroeste 0 1006.7 1.4 22
2019-08-12 09:00:00 26.9 9 Sudoeste 16 Sudoeste 0 1006.5 1.7 25
2019-08-12 08:00:00 25.6 9 Sudoeste 24 Oeste 0 1005.9 1.4 27
2019-08-12 07:00:00 26.9 13 Oeste 24 Oeste 0 1005.3 0.4 22
2019-08-12 06:00:00 27.2 9 Oeste 23 Oeste 0 1004.8 -0.2 22
2019-08-12 05:00:00 27.2 9 Oeste 16 Oeste 0 1004.5 -1.1 24
2019-08-12 04:00:00 26.2 7 Sudoeste 13 Sudoeste 0 1004.9 -1.1 73
2019-08-12 03:00:00 26.7 6 Sudoeste 12 Oeste 0 1005 -1.1 78
2019-08-12 02:00:00 26.8 6 Oeste 9 Norte 0 1005.6 -0.3 77
2019-08-12 01:00:00 27 4 Norte 13 Nordeste 0 1006 0.9 73
2019-08-12 00:00:00 27.7 8 Nordeste 18 Nordeste 0 1006.1 1.8 70
2019-08-11 23:00:00 28.2 12 Nordeste 19 Nordeste 0 1005.9 2.3 69
2019-08-11 22:00:00 29 12 Nordeste 26 Este 0 1005.1 1.9 66
2019-08-11 21:00:00 30 15 Nordeste 26 Nordeste 0 1004.3 0.9 66
2019-08-11 20:00:00 31.9 17 Nordeste 30 Nordeste 0 1003.6 -0.2 57
2019-08-11 19:00:00 33 19 Nordeste 30 Nordeste 0 1003.2 -1 53
2019-08-11 18:00:00 35.2 16 Nordeste 29 Nordeste 0 1003.4 -1.3 44
2019-08-11 17:00:00 35.4 13 Sudeste 24 Este 0 1003.8 -1.6 45
2019-08-11 16:00:00 35.5 15 Este 32 Este 0 1004.2 -2.1 48
2019-08-11 15:00:00 36.2 13 Este 23 Este 0 1004.7 -2.1 41
2019-08-11 14:00:00 35 10 Nordeste 19 Nordeste 0 1005.4 -1.3 42
2019-08-11 13:00:00 33.2 7 Este 16 Este 0 1006.3 -0.4 51
2019-08-11 12:00:00 31.6 6 Sudeste 14 Sur 0 1006.8 -0.3 61
2019-08-11 11:00:00 30.2 7 Nordeste 14 Este 0 1006.7 0 67
2019-08-11 10:00:00 28.1 7 Norte 12 Nordeste 0 1006.7 0.5 75
2019-08-11 09:00:00 26.6 5 Sur 9 Sur 0 1007.1 1.4 81
2019-08-11 08:00:00 25.8 4 Nordeste 9 Nordeste 0 1006.7 1 87
2019-08-11 07:00:00 25.8 6 Este 10 Norte 0 1006.2 0.2 87
2019-08-11 06:00:00 25.4 4 Noroeste 9 Sur 0 1005.7 -0.9 78
2019-08-11 05:00:00 26.1 4 Sudeste 8 Nordeste 0 1005.7 -1.6 84
2019-08-11 04:00:00 26.2 6 Norte 11 Nordeste 0 1006 -1.4 84
2019-08-11 03:00:00 26.6 7 Nordeste 10 Nordeste 0 1006.6 -0.9 81
2019-08-11 02:00:00 26.9 5 Nordeste 10 Nordeste 0 1007.3 -0.2 77
2019-08-11 01:00:00 27.5 8 Nordeste 14 Nordeste 0 1007.4 0.3 75
2019-08-11 00:00:00 27.9 8 Nordeste 14 Este 0 1007.5 1 71
2019-08-10 23:00:00 28.9 10 Nordeste 18 Este 0 1007.5 1.3 64
2019-08-10 22:00:00 29.9 14 Nordeste 28 Nordeste 0 1007.1 0.9 57
2019-08-10 21:00:00 31.1 15 Nordeste 31 Nordeste 0 1006.5 0.1 50
2019-08-10 20:00:00 33.7 17 Nordeste 29 Nordeste 0 1006.2 -0.6 42
2019-08-10 19:00:00 35.4 16 Este 32 Este 0 1006.2 -0.8 36
2019-08-10 18:00:00 36 19 Este 34 Este 0 1006.4 -0.5 34
2019-08-10 17:00:00 36.9 18 Este 33 Este 0 1006.8 -0.7 34
2019-08-10 16:00:00 37.7 20 Este 33 Este 0 1007 -1.1 33
2019-08-10 15:00:00 39.4 15 Este 31 Este 0 1006.9 -1.7 27
2019-08-10 14:00:00 38.9 6 Nordeste 15 Oeste 0 1007.5 -1.3 22
2019-08-10 13:00:00 37.7 9 Noroeste 22 Noroeste 0 1008.1 -0.6 25
2019-08-10 12:00:00 35.9 13 Noroeste 27 Noroeste 0 1008.6 0.2 31
2019-08-10 11:00:00 33.9 18 Oeste 29 Oeste 0 1008.8 0.9 36
2019-08-10 10:00:00 32.6 11 Oeste 17 Sudoeste 0 1008.7 1.7 37
2019-08-10 09:00:00 30.5 8 Sudoeste 14 Oeste 0 1008.4 1.9 36
2019-08-10 08:00:00 28.9 9 Sudoeste 15 Oeste 0 1007.9 1.5 34
2019-08-10 07:00:00 27.9 8 Oeste 13 Oeste 0 1007 0.6 33
2019-08-10 06:00:00 27.2 6 Oeste 12 Oeste 0 1006.5 0.3 33
2019-08-10 05:00:00 26.3 3 Sudoeste 8 Oeste 0 1006.4 0.2 44
2019-08-10 04:00:00 26.9 4 Sudoeste 8 Sudoeste 0 1006.4 0.1 47
2019-08-10 03:00:00 27.3 6 Oeste 8 Oeste 0 1006.2 0.1 45
2019-08-10 02:00:00 27.9 3 Oeste 6 Oeste 0 1006.2 0.4 56
2019-08-10 01:00:00 28.8 4 Oeste 6 Oeste 0 1006.3 1.5 48
2019-08-10 00:00:00 30 4 Nordeste 10 Este 0 1006.1 2.5 47
2019-08-09 23:00:00 31.4 8 Nordeste 14 Nordeste 0 1005.8 2.9 50
2019-08-09 22:00:00 33.7 8 Este 16 Este 0 1004.8 1.8 39
2019-08-09 21:00:00 37.3 5 Sur 13 Sur 0 1003.6 0.4 24
2019-08-09 20:00:00 40.5 5 Sur 14 Este 0 1002.9 -0.7 19
2019-08-09 19:00:00 41.3 8 Este 17 Este 0 1003 -1.2 17
2019-08-09 18:00:00 41.8 9 Sudeste 19 Sur 0 1003.2 -1.7 17
2019-08-09 17:00:00 42 9 Sudeste 27 Sudeste 0 1003.6 -1.9 17
2019-08-09 16:00:00 42.4 7 Sudeste 19 Sudeste 0 1004.2 -1.8 16
2019-08-09 15:00:00 41.3 5 Sudoeste 14 Este 0 1004.9 -1.5 14
2019-08-09 14:00:00 40.6 5 Este 13 Noroeste 0 1005.5 -0.9 15
2019-08-09 13:00:00 38.1 7 Oeste 19 Noroeste 0 1006 -0.5 17
2019-08-09 12:00:00 36 11 Oeste 27 Noroeste 0 1006.4 0.1 20
2019-08-09 11:00:00 33.1 9 Oeste 15 Oeste 0 1006.4 0.4 26
2019-08-09 10:00:00 29.8 6 Oeste 9 Sudoeste 0 1006.5 0.5 31
2019-08-09 09:00:00 26.2 5 Oeste 8 Sudoeste 0 1006.3 0.6 39
2019-08-09 08:00:00 23.3 3 Oeste 9 Oeste 0 1006 0.3 48
2019-08-09 07:00:00 22.9 7 Noroeste 10 Noroeste 0 1006 0.3 47
2019-08-09 06:00:00 23.9 5 Sudoeste 10 Oeste 0 1005.7 -0.1 47
2019-08-09 05:00:00 23.9 3 Oeste 11 Noroeste 0 1005.7 -0.2 45
2019-08-09 04:00:00 24.2 3 Oeste 8 Sur 0 1005.7 -0.1 49
2019-08-09 03:00:00 25.3 5 Noroeste 7 Noroeste 0 1005.8 0 51
2019-08-09 02:00:00 26.4 4 Oeste 8 Sudoeste 0 1005.9 0.3 53
2019-08-09 01:00:00 27.2 6 Oeste 9 Oeste 0 1005.8 0.8 50
2019-08-09 00:00:00 28.3 4 Oeste 8 Norte 0 1005.8 1.5 40
2019-08-08 23:00:00 29.3 3 Noroeste 8 Sudeste 0 1005.6 1.8 38
2019-08-08 22:00:00 31.5 2 Este 13 Sudoeste 0 1005 1.3 36
2019-08-08 21:00:00 33.6 5 Sur 23 Sur 0 1004.3 0.6 34
2019-08-08 20:00:00 35.8 9 Sur 30 Sudeste 0 1003.8 0 27
2019-08-08 19:00:00 37.6 12 Sur 30 Sudeste 0 1003.7 -0.6 23
2019-08-08 18:00:00 38.2 15 Sudeste 33 Sudeste 0 1003.7 -0.9 23
2019-08-08 17:00:00 39 15 Sudeste 29 Sudeste 0 1003.8 -1.5 23
2019-08-08 16:00:00 39.3 12 Sudeste 27 Sudeste 0 1004.3 -1.7 23
2019-08-08 15:00:00 38.9 8 Nordeste 18 Este 0 1004.6 -1.7 19
2019-08-08 14:00:00 38.2 6 Sudoeste 22 Sudeste 0 1005.3 -0.9 19
2019-08-08 13:00:00 37 6 Noroeste 23 Noroeste 0 1006 -0.1 20
2019-08-08 12:00:00 35 9 Sudoeste 19 Oeste 0 1006.3 0.4 24
2019-08-08 11:00:00 33.3 9 Oeste 20 Oeste 0 1006.2 0.6 28
2019-08-08 10:00:00 30.8 8 Sudoeste 18 Oeste 0 1006.1 1 35
2019-08-08 09:00:00 27.6 6 Sur 14 Oeste 0 1005.9 1.2 42
2019-08-08 08:00:00 24.8 6 Oeste 12 Sudoeste 0 1005.6 1.3 47
2019-08-08 07:00:00 24.3 6 Oeste 9 Oeste 0 1005.1 0.7 44
2019-08-08 06:00:00 24.2 4 Oeste 8 Noroeste 0 1004.7 0.1 47
2019-08-08 05:00:00 24.7 5 Oeste 10 Oeste 0 1004.3 -0.6 47
2019-08-08 04:00:00 26 6 Oeste 12 Oeste 0 1004.4 -0.4 46
2019-08-08 03:00:00 26.5 6 Sudoeste 10 Oeste 0 1004.6 -0.4 46
2019-08-08 02:00:00 27.2 6 Oeste 13 Noroeste 0 1004.9 -0.1 46
2019-08-08 01:00:00 27.5 9 Noroeste 12 Noroeste 0 1004.8 0.8 54
2019-08-08 00:00:00 28.7 7 Este 13 Este 0 1005 1.8 50
2019-08-07 23:00:00 29.8 11 Nordeste 20 Nordeste 0 1005 2.6 42
2019-08-07 22:00:00 30.5 14 Nordeste 26 Nordeste 0 1004 1.9 38
2019-08-07 21:00:00 31.6 16 Nordeste 30 Nordeste 0 1003.2 1.4 35
2019-08-07 20:00:00 33 19 Nordeste 30 Nordeste 0 1002.4 0.7 36
2019-08-07 19:00:00 35.1 20 Nordeste 30 Nordeste 0 1002.1 0.1 31
2019-08-07 18:00:00 38.9 11 Sudeste 20 Sur 0 1001.8 -0.9 21
2019-08-07 17:00:00 39.5 9 Sudeste 21 Sudeste 0 1001.7 -1.2 25
2019-08-07 16:00:00 40.4 9 Este 16 Este 0 1002 -1.4 15
2019-08-07 15:00:00 40 7 Sudeste 16 Este 0 1002.7 -1.1 15
2019-08-07 14:00:00 39.4 5 Este 19 Norte 0 1002.9 -1 15
2019-08-07 13:00:00 37.8 6 Oeste 19 Norte 0 1003.4 -0.3 18
2019-08-07 12:00:00 35.9 5 Oeste 12 Oeste 0 1003.8 0.6 23
2019-08-07 11:00:00 32 8 Oeste 13 Oeste 0 1003.9 1 33
2019-08-07 10:00:00 28.7 6 Sudoeste 10 Sudoeste 0 1003.7 1 54
2019-08-07 09:00:00 26.1 5 Oeste 8 Oeste 0 1003.2 0.8 66
2019-08-07 08:00:00 24.1 5 Sudoeste 10 Oeste 0 1002.9 0.4 75
2019-08-07 07:00:00 24.3 6 Oeste 9 Oeste 0 1002.7 0.5 78
2019-08-07 06:00:00 24.6 5 Oeste 8 Oeste 0 1002.4 0 80
2019-08-07 05:00:00 24.5 3 Noroeste 6 Sur 0 1002.5 -0.3 76
2019-08-07 04:00:00 25.6 4 Sudoeste 8 Sur 0 1002.2 -0.8 72
2019-08-07 03:00:00 25.9 0 Calma 9 Norte 0 1002.4 -0.7 82
2019-08-07 02:00:00 26.4 5 Nordeste 15 Nordeste 0 1002.8 -0.4 79
2019-08-07 01:00:00 26.9 12 Nordeste 19 Norte 0 1003 0.4 76
2019-08-07 00:00:00 27.9 15 Nordeste 23 Nordeste 0 1003.1 1.4 69
2019-08-06 23:00:00 28.4 15 Nordeste 24 Nordeste 0 1003.2 2.4 67
2019-08-06 22:00:00 29.7 18 Nordeste 27 Nordeste 0 1002.6 2 62
2019-08-06 21:00:00 31.4 20 Nordeste 29 Nordeste 0 1001.7 0.6 57
2019-08-06 20:00:00 36.7 10 Este 20 Sudeste 0 1000.8 -0.9 35
2019-08-06 19:00:00 38.5 11 Sudeste 22 Sudeste 0 1000.6 -1.9 30
2019-08-06 18:00:00 39.3 11 Este 21 Este 0 1001.1 -2.1 26
2019-08-06 17:00:00 39.4 11 Sudeste 26 Sudeste 0 1001.7 -2.5 27
2019-08-06 16:00:00 39.8 11 Sudeste 22 Este 0 1002.5 -2.6 29
2019-08-06 15:00:00 39 6 Este 21 Nordeste 0 1003.2 -2.4 30
2019-08-06 14:00:00 37 6 Este 17 Este 0 1004.2 -1.8 34
2019-08-06 13:00:00 34.7 8 Este 13 Este 0 1005.1 -1.2 46
2019-08-06 12:00:00 32.5 6 Nordeste 11 Nordeste 0 1005.6 -0.4 51
2019-08-06 11:00:00 30.1 4 Sudoeste 11 Noroeste 0 1006 0.4 60
2019-08-06 10:00:00 27.9 5 Sudoeste 12 Sudoeste 0 1006.3 1.1 71
2019-08-06 09:00:00 26.5 3 Sudoeste 8 Sudoeste 0 1006 0.7 79
2019-08-06 08:00:00 24.8 4 Oeste 6 Noroeste 0 1005.6 0.2 86
2019-08-06 07:00:00 24.8 6 Oeste 9 Oeste 0 1005.2 -0.6 87
2019-08-06 06:00:00 24.9 5 Noroeste 8 Noroeste 0 1005.3 -0.6 86
2019-08-06 05:00:00 25.3 3 Noroeste 5 Nordeste 0 1005.4 -0.7 85
2019-08-06 04:00:00 25.6 4 Nordeste 11 Nordeste 0 1005.8 -0.3 85
2019-08-06 03:00:00 25.6 6 Nordeste 12 Nordeste 0 1005.9 -0.3 85
2019-08-06 02:00:00 26 9 Este 17 Este 0 1006.1 0.1 82
2019-08-06 01:00:00 26.4 9 Nordeste 15 Nordeste 0 1006.1 0.6 79
2019-08-06 00:00:00 26.8 9 Nordeste 16 Nordeste 0 1006.2 1.9 75
2019-08-05 23:00:00 27.5 10 Nordeste 19 Este 0 1006 2.4 70
2019-08-05 22:00:00 28.2 11 Este 28 Nordeste 0 1005.5 1.6 67
2019-08-05 21:00:00 29.1 17 Este 29 Nordeste 0 1004.3 0.5 60
2019-08-05 20:00:00 31 18 Nordeste 30 Nordeste 0 1003.6 -0.5 57
2019-08-05 19:00:00 33.3 12 Este 26 Sudeste 0 1003.9 -0.4 53
2019-08-05 18:00:00 34.3 15 Este 28 Este 0 1003.8 -1.2 49
2019-08-05 17:00:00 35.9 15 Este 42 Nordeste 0 1004.1 -1.8 45
2019-08-05 16:00:00 36 19 Nordeste 32 Este 0 1004.3 -2.5 46
2019-08-05 15:00:00 35.7 13 Este 24 Este 0 1005 -2.3 45
2019-08-05 14:00:00 34.1 11 Nordeste 21 Nordeste 0 1005.9 -1.5 50
2019-08-05 13:00:00 32.5 6 Nordeste 15 Nordeste 0 1006.8 -0.9 54
2019-08-05 12:00:00 31.1 6 Este 15 Sudeste 0 1007.3 -0.3 58
2019-08-05 11:00:00 29.5 5 Este 12 Este 0 1007.4 0 64
2019-08-05 10:00:00 27.9 7 Este 12 Este 0 1007.7 1.2 71
2019-08-05 09:00:00 26.4 5 Nordeste 10 Nordeste 0 1007.6 1.6 78
2019-08-05 08:00:00 24.6 3 Este 7 Sudoeste 0 1007.4 1.2 83
2019-08-05 07:00:00 24.3 4 Noroeste 9 Oeste 0 1006.5 -0.1 84
2019-08-05 06:00:00 24.6 4 Oeste 7 Oeste 0 1006 -1 83
2019-08-05 05:00:00 25.2 4 Sur 6 Sur 0 1006.2 -1.1 86
2019-08-05 04:00:00 25.1 2 Nordeste 11 Nordeste 0 1006.6 -0.9 84
2019-08-05 03:00:00 25.3 6 Nordeste 12 Norte 0 1007 -0.5 83
2019-08-05 02:00:00 25.9 8 Este 15 Nordeste 0 1007.3 0.4 81
2019-08-05 01:00:00 26.2 10 Nordeste 17 Nordeste 0 1007.5 1.6 78
2019-08-05 00:00:00 26.8 12 Nordeste 23 Nordeste 0 1007.5 2.6 71
2019-08-04 23:00:00 27.5 15 Nordeste 24 Este 0 1006.9 2.6 64
2019-08-04 22:00:00 28.3 15 Nordeste 27 Nordeste 0 1005.9 1.9 65
2019-08-04 21:00:00 31.4 12 Este 22 Nordeste 0 1004.9 0.7 53
2019-08-04 20:00:00 33.6 10 Este 20 Este 0 1004.3 -0.1 46
2019-08-04 19:00:00 35.1 8 Este 22 Sudeste 0 1004 -0.9 39
2019-08-04 18:00:00 35.3 12 Sudeste 27 Sudeste 0 1004.2 -1.4 39
2019-08-04 17:00:00 36.2 15 Este 31 Este 0 1004.4 -1.8 42
2019-08-04 16:00:00 35.9 14 Nordeste 23 Nordeste 0 1004.9 -2 42
2019-08-04 15:00:00 35.1 13 Este 23 Este 0 1005.6 -1.8 43
2019-08-04 14:00:00 33.7 10 Este 22 Sudeste 0 1006.2 -1.4 45
2019-08-04 13:00:00 32.8 9 Nordeste 18 Este 0 1006.9 -0.6 48
2019-08-04 12:00:00 31.6 6 Este 13 Este 0 1007.4 0.3 51
2019-08-04 11:00:00 30.1 5 Este 11 Este 0 1007.6 1.1 55
2019-08-04 10:00:00 27.4 5 Oeste 12 Sudoeste 0 1007.5 1.5 63
2019-08-04 09:00:00 24.9 3 Sudoeste 11 Sur 0 1007.1 1.2 77
2019-08-04 08:00:00 23.2 4 Sudoeste 6 Norte 0 1006.5 0.4 82
2019-08-04 07:00:00 23 5 Noroeste 11 Sur 0 1006 -0.5 82
2019-08-04 06:00:00 23.4 6 Oeste 10 Noroeste 0 1005.9 -0.7 84
2019-08-04 05:00:00 23.6 5 Oeste 8 Oeste 0 1006.1 -1.2 84
2019-08-04 04:00:00 23.7 4 Noroeste 6 Oeste 0 1006.5 -0.9 82
2019-08-04 03:00:00 24.2 4 Nordeste 10 Nordeste 0 1006.6 -0.9 82
2019-08-04 02:00:00 24.6 6 Nordeste 12 Nordeste 0 1007.3 0.2 79
2019-08-04 01:00:00 25.1 9 Nordeste 15 Este 0 1007.4 1.5 74
2019-08-04 00:00:00 25.6 10 Nordeste 18 Nordeste 0 1007.5 2.3 73
2019-08-03 23:00:00 26.1 11 Este 18 Este 0 1007.1 2.3 68
2019-08-03 22:00:00 27.3 13 Nordeste 24 Este 0 1005.9 1 53
2019-08-03 21:00:00 28.6 13 Nordeste 25 Nordeste 0 1005.2 0.1 44
2019-08-03 20:00:00 30.3 20 Nordeste 29 Nordeste 0 1004.8 -0.9 47
2019-08-03 19:00:00 31.7 19 Nordeste 32 Nordeste 0 1004.9 -1.4 45
2019-08-03 18:00:00 32.6 18 Este 32 Este 0 1005.1 -1.8 42
2019-08-03 17:00:00 33.2 19 Este 30 Nordeste 0 1005.7 -1.8 41
2019-08-03 16:00:00 33.2 18 Este 31 Nordeste 0 1006.3 -1.5 41
2019-08-03 15:00:00 33.4 18 Este 34 Nordeste 0 1006.9 -1.1 40
2019-08-03 14:00:00 32.4 11 Este 28 Este 0 1007.5 -0.7 45
2019-08-03 13:00:00 31.5 7 Sudeste 20 Este 0 1007.8 -0.9 49
2019-08-03 12:00:00 30.6 10 Este 19 Este 0 1008 -0.3 49
2019-08-03 11:00:00 29.3 7 Nordeste 16 Este 0 1008.2 0.3 60
2019-08-03 10:00:00 27.6 7 Este 14 Este 0 1008.7 1.3 69
2019-08-03 09:00:00 25.8 3 Oeste 6 Oeste 0 1008.3 1.3 78
2019-08-03 08:00:00 24.2 4 Noroeste 8 Sudoeste 0 1007.9 0.7 83
2019-08-03 07:00:00 23.8 5 Sur 8 Noroeste 0 1007.4 0 84
2019-08-03 06:00:00 24 3 Oeste 5 Noroeste 0 1007 -0.4 84
2019-08-03 05:00:00 23.8 3 Noroeste 4 Noroeste 0 1007.2 -0.7 83
2019-08-03 04:00:00 24.8 0 Calma 8 Nordeste 0 1007.4 -0.8 83
2019-08-03 03:00:00 24.8 5 Nordeste 11 Este 0 1007.4 -0.6 81
2019-08-03 02:00:00 25.1 8 Nordeste 17 Nordeste 0 1007.9 0.3 81
2019-08-03 01:00:00 25.3 13 Nordeste 21 Nordeste 0 1008.2 1.9 81
2019-08-03 00:00:00 26.1 12 Nordeste 18 Nordeste 0 1008 2.8 76
2019-08-02 23:00:00 27.9 6 Este 13 Sur 0 1007.6 2.8 65
2019-08-02 22:00:00 29.1 9 Sudeste 20 Nordeste 0 1006.3 1.5 61
2019-08-02 21:00:00 30.6 13 Nordeste 26 Nordeste 0 1005.2 -0.2 53
2019-08-02 20:00:00 32.4 15 Nordeste 24 Nordeste 0 1004.8 -1.3 48
2019-08-02 19:00:00 33.3 10 Este 19 Nordeste 0 1004.8 -2 45
2019-08-02 18:00:00 33.3 8 Este 19 Este 0 1005.4 -1.6 47
2019-08-02 17:00:00 33.1 10 Este 26 Sudeste 0 1006.1 -1.2 49
2019-08-02 16:00:00 33.5 10 Sudeste 24 Este 0 1006.8 -0.7 47
2019-08-02 15:00:00 32.9 13 Sudeste 30 Este 0 1007 -0.5 49
2019-08-02 14:00:00 32.6 12 Este 31 Este 0 1007.3 0 49
2019-08-02 13:00:00 32.4 11 Este 24 Este 0 1007.5 0.6 49
2019-08-02 12:00:00 30.9 10 Este 21 Este 0 1007.5 0.9 55
2019-08-02 11:00:00 29.2 9 Este 18 Este 0 1007.3 1.1 62
2019-08-02 10:00:00 28.1 6 Nordeste 12 Nordeste 0 1006.9 1.2 66
2019-08-02 09:00:00 25.8 4 Sudoeste 10 Oeste 0 1006.6 1.3 73
2019-08-02 08:00:00 23.7 4 Noroeste 9 Sur 0 1006.2 0.3 81
2019-08-02 07:00:00 23.1 5 Sur 14 Sudeste 0 1005.7 -0.2 82
2019-08-02 06:00:00 23.5 6 Oeste 12 Oeste 0 1005.3 -0.6 82
2019-08-02 05:00:00 24.2 6 Oeste 10 Oeste 0 1005.9 -0.4 80
2019-08-02 04:00:00 24.5 4 Sur 7 Sudoeste 0 1005.9 -0.5 78
2019-08-02 03:00:00 24.8 0 Calma 10 Norte 0 1005.9 -0.7 79
2019-08-02 02:00:00 24.8 7 Nordeste 10 Nordeste 0 1006.3 0.1 79
2019-08-02 01:00:00 25.1 3 Nordeste 6 Sur 0 1006.4 1 72
2019-08-02 00:00:00 25.8 4 Sur 14 Nordeste 0 1006.6 2 73
2019-08-01 23:00:00 26 11 Nordeste 18 Nordeste 0 1006.2 2.8 75
2019-08-01 22:00:00 27.1 6 Este 19 Sudeste 0 1005.4 3 69
2019-08-01 21:00:00 28.5 10 Sudeste 19 Sudeste 0 1004.6 2.2 62
2019-08-01 20:00:00 31 13 Sudeste 24 Sudeste 0 1003.4 0.5 53
2019-08-01 19:00:00 33.2 18 Nordeste 28 Nordeste 0 1002.4 -1.3 49
2019-08-01 18:00:00 35.1 12 Este 22 Nordeste 0 1002.4 -1.6 34
2019-08-01 17:00:00 34.6 14 Este 22 Este 0 1002.9 -2.1 33
2019-08-01 16:00:00 33.8 8 Sudeste 20 Sudeste 0 1003.7 -1.8 35
2019-08-01 15:00:00 32.3 10 Este 18 Nordeste 0 1004 -2.2 38
2019-08-01 14:00:00 32.2 9 Sudeste 17 Este 0 1005 -1 37
2019-08-01 13:00:00 31.1 7 Sudoeste 16 Sudeste 0 1005.5 -0.4 40
2019-08-01 12:00:00 29.9 5 Sudoeste 18 Sudoeste 0 1006.2 0 42
2019-08-01 11:00:00 28.2 8 Oeste 17 Oeste 0 1006 -0.2 50
2019-08-01 10:00:00 26.3 8 Noroeste 13 Noroeste 0 1005.9 0.2 59
2019-08-01 09:00:00 24.6 3 Sudoeste 8 Oeste 0 1006.2 0.1 65
2019-08-01 08:00:00 22.2 5 Oeste 13 Sur 0 1006.2 0.6 71
2019-08-01 07:00:00 21.6 3 Sudoeste 9 Sudoeste 0 1005.7 -0.4 72
2019-08-01 06:00:00 22.5 5 Oeste 12 Sur 0 1006.1 -0.2 69
2019-08-01 05:00:00 23.2 9 Oeste 13 Oeste 0 1005.6 -0.6 65
2019-08-01 04:00:00 22.9 6 Oeste 10 Noroeste 0 1006.1 -0.6 70
2019-08-01 03:00:00 23.7 0 Calma 8 Noroeste 0 1006.3 -0.3 68
2019-08-01 02:00:00 23.9 4 Noroeste 10 Noroeste 0 1006.2 -1.1 70
2019-08-01 01:00:00 24.9 4 Sudoeste 12 Noroeste 0 1006.7 -0.5 68
2019-08-01 00:00:00 25.2 6 Noroeste 20 Nordeste 0 1006.6 0.7 64
2019-07-31 23:00:00 25.5 6 Nordeste 26 Nordeste 0 1007.3 1.6 62
2019-07-31 22:00:00 26.4 13 Este 29 Este 0 1007.2 1.6 61
2019-07-31 21:00:00 27.3 12 Este 27 Este 0 1005.9 0.4 52
2019-07-31 20:00:00 28.8 14 Este 28 Nordeste 0 1005.7 -1.2 48
2019-07-31 19:00:00 29.1 17 Este 37 Nordeste 0 1005.6 -1.7 43
2019-07-31 18:00:00 29.6 20 Este 33 Nordeste 0 1005.5 -2.2 46
2019-07-31 17:00:00 28.8 19 Este 41 Este 0 1006.9 -1.4 50
2019-07-31 16:00:00 30.2 22 Este 40 Este 0 1007.3 -1.3 45
2019-07-31 15:00:00 30.3 19 Este 36 Nordeste 0 1007.7 -1 49
2019-07-31 14:00:00 28.1 22 Este 38 Nordeste 0 1008.3 -1.2 58
2019-07-31 13:00:00 27.6 23 Nordeste 39 Nordeste 0 1008.6 -0.1 58
2019-07-31 12:00:00 27.5 21 Este 36 Nordeste 0 1008.7 0.8 65
2019-07-31 11:00:00 27.7 13 Este 25 Nordeste 0 1009.5 1.4 64
2019-07-31 10:00:00 26.4 9 Nordeste 20 Norte 0 1008.7 1.6 63
2019-07-31 09:00:00 25 8 Noroeste 14 Noroeste 0 1007.9 0.1 71
2019-07-31 08:00:00 24.4 3 Sudoeste 12 Sur 0 1008.1 -0.7 74
2019-07-31 07:00:00 24.6 5 Noroeste 22 Norte 0 1007.1 -1 72
2019-07-31 06:00:00 24.6 9 Norte 21 Nordeste 0 1007.8 -0.6 76
2019-07-31 05:00:00 24.8 6 Noroeste 15 Norte 0 1008.8 0.8 78
2019-07-31 04:00:00 24.3 6 Norte 13 Nordeste 0 1008.1 0.3 79
2019-07-31 03:00:00 24.3 5 Nordeste 12 Este 0 1008.4 1 79
2019-07-31 02:00:00 24.6 5 Este 12 Este 0 1008 0.8 79
2019-07-31 01:00:00 24.9 6 Nordeste 14 Este 0 1007.8 1.4 78
2019-07-31 00:00:00 25.5 10 Este 18 Nordeste 0 1007.4 1.5 75
2019-07-30 23:00:00 26 9 Este 24 Sudeste 0 1007.2 1.8 71
2019-07-30 22:00:00 26.3 16 Este 24 Este 0 1006.4 1.2 73
2019-07-30 21:00:00 27.5 15 Este 33 Este 0 1005.9 0.8 64
2019-07-30 20:00:00 29 19 Este 37 Nordeste 0 1005.4 0.3 56
2019-07-30 19:00:00 30.4 19 Este 38 Este 0 1005.2 -0.2 48
2019-07-30 18:00:00 31.4 22 Este 38 Nordeste 0 1005.1 -0.4 47
2019-07-30 17:00:00 32.1 23 Este 41 Este 0 1005.1 -0.5 44
2019-07-30 16:00:00 32.8 22 Este 39 Este 0 1005.4 -0.2 42
2019-07-30 15:00:00 32.9 22 Este 39 Nordeste 0 1005.5 -0.1 43
2019-07-30 14:00:00 33.4 20 Este 41 Este 0 1005.6 -0.1 47
2019-07-30 13:00:00 34 14 Este 23 Este 0 1005.6 -0.2 33
2019-07-30 12:00:00 33.9 5 Este 12 Nordeste 0 1005.6 0 26
2019-07-30 11:00:00 31.5 6 Noroeste 14 Noroeste 0 1005.7 0.6 32
2019-07-30 10:00:00 27.8 3 Sudeste 5 Sudeste 0 1005.8 1.1 57
2019-07-30 09:00:00 25 2 Sur 5 Sur 0 1005.6 1.1 70
2019-07-30 08:00:00 23 0 Calma 7 Sudoeste 0 1005.1 0.5 77
2019-07-30 07:00:00 22.4 7 Sur 9 Sur 0 1004.7 0.4 78
2019-07-30 06:00:00 23.1 3 Sudoeste 10 Oeste 0 1004.5 0 81
2019-07-30 05:00:00 23.4 5 Sudoeste 10 Sur 0 1004.6 -0.1 77
2019-07-30 04:00:00 23.8 5 Oeste 8 Noroeste 0 1004.3 -0.4 81
2019-07-30 03:00:00 24 6 Norte 10 Nordeste 0 1004.5 0.1 83
2019-07-30 02:00:00 24.4 6 Nordeste 18 Nordeste 0 1004.7 0.7 81
2019-07-30 01:00:00 24.9 9 Nordeste 20 Este 0 1004.7 1.6 77
2019-07-30 00:00:00 26 14 Nordeste 23 Nordeste 0 1004.4 2.1 69
2019-07-29 23:00:00 26.9 15 Nordeste 22 Nordeste 0 1004 2 68
2019-07-29 22:00:00 29.7 5 Este 12 Nordeste 0 1003.1 1.2 39
2019-07-29 21:00:00 31.4 8 Sudeste 14 Sudeste 0 1002.3 0.4 36
2019-07-29 20:00:00 33 8 Sudeste 20 Sudeste 0 1002 -0.1 32
2019-07-29 19:00:00 33.8 10 Este 24 Este 0 1001.9 -0.5 32
2019-07-29 18:00:00 34.3 12 Este 23 Este 0 1001.9 -0.7 32
2019-07-29 17:00:00 34.9 10 Sudeste 27 Este 0 1002.1 -- 33
2019-07-29 16:00:00 34.8 9 Sudeste 26 Sudeste 0 1002.4 -1.5 33
2019-07-29 15:00:00 35.2 8 Sur 19 Este 0 1002.6 -1.6 33
2019-07-29 14:00:00 -- -- -- -- -- -- -- -- --
2019-07-29 13:00:00 32.7 6 Este 18 Este 0 1003.9 -0.6 39
2019-07-29 12:00:00 30.4 6 Sur 12 Oeste 0 1004.2 -0.2 49
2019-07-29 11:00:00 28.8 5 Nordeste 9 Oeste 0 1004.4 0.1 50
2019-07-29 10:00:00 26.3 4 Sudoeste 8 Sudoeste 0 1004.5 0.6 69
2019-07-29 09:00:00 25 4 Sudeste 8 Sur 0 1004.4 0.9 75
2019-07-29 08:00:00 22.7 4 Oeste 6 Oeste 0 1004.3 1 80
2019-07-29 07:00:00 22.1 0 Calma 6 Oeste 0 1003.9 0.5 82
2019-07-29 06:00:00 22.9 3 Sudoeste 8 Sudoeste 0 1003.5 0.1 80
2019-07-29 05:00:00 23.1 0 Calma 9 Este 0 1003.3 -0.2 86
2019-07-29 04:00:00 23.5 4 Este 14 Este 0 1003.4 -0.3 85
2019-07-29 03:00:00 23.9 9 Este 18 Este 0 1003.4 -0.3 84
2019-07-29 02:00:00 24.3 11 Nordeste 23 Este 0 1003.5 0 81
2019-07-29 01:00:00 24.8 14 Nordeste 22 Nordeste 0 1003.7 1.1 77
2019-07-29 00:00:00 25.5 15 Nordeste 22 Nordeste 0 1003.7 1.8 71
2019-07-28 23:00:00 26.8 11 Nordeste 18 Norte 0 1003.5 2.1 62
2019-07-28 22:00:00 28.8 4 Sur 21 Sudoeste 0 1002.6 1.7 40
2019-07-28 21:00:00 30.2 12 Sur 22 Sur 0 1001.9 0.9 36
2019-07-28 20:00:00 32 10 Sudeste 29 Sudeste 0 1001.4 0.4 28
2019-07-28 19:00:00 32.7 14 Sudeste 29 Sudeste 0 1000.9 -0.7 29
2019-07-28 18:00:00 33.4 15 Sur 30 Sudeste 0 1001 -1 30
2019-07-28 17:00:00 33.7 14 Sudeste 32 Sudeste 0 1001 -1.3 33
2019-07-28 16:00:00 33.4 17 Sur 31 Sudeste 0 1001.6 -1.2 35
2019-07-28 15:00:00 33.7 13 Sudeste 27 Este 0 1002 -1.1 33
2019-07-28 14:00:00 33.5 9 Nordeste 16 Norte 0 1002.3 -1 26
2019-07-28 13:00:00 32.5 6 Sur 18 Sudeste 0 1002.8 -0.5 28
2019-07-28 12:00:00 31.7 5 Nordeste 16 Nordeste 0 1003.1 0 30
2019-07-28 11:00:00 30.1 8 Oeste 23 Norte 0 1003.3 0.7 34
2019-07-28 10:00:00 28.5 11 Noroeste 21 Noroeste 0 1003.3 1.1 41
2019-07-28 09:00:00 26.8 7 Sudoeste 12 Oeste 0 1003.1 1.5 42
2019-07-28 08:00:00 23.7 4 Oeste 9 Noroeste 0 1002.6 1.5 48
2019-07-28 07:00:00 22.6 2 Noroeste 7 Sur 0 1002.2 1.2 50
2019-07-28 06:00:00 24.8 4 Sudoeste 10 Oeste 0 1001.6 0.4 42
2019-07-28 05:00:00 25.3 7 Noroeste 14 Oeste 0 1001.1 -0.3 45
2019-07-28 04:00:00 26.1 10 Oeste 15 Oeste 0 1001 -0.3 41
2019-07-28 03:00:00 27.2 10 Oeste 25 Noroeste 0 1001.2 0.2 39
2019-07-28 02:00:00 28.1 12 Oeste 31 Noroeste 0 1001.4 1.2 37
2019-07-28 01:00:00 28.7 18 Noroeste 30 Noroeste 0 1001.3 2.4 38
2019-07-28 00:00:00 29.4 18 Noroeste 33 Noroeste 0 1001 3 38
2019-07-27 23:00:00 30.8 14 Oeste 33 Oeste 0 1000.2 2.8 33
2019-07-26 12:00:00 32.1 6 Sudeste 11 Sur 0 1003.5 -1 37
2019-07-26 11:00:00 29.4 3 Sur 13 Sudoeste 0 1004.1 -0.3 48
2019-07-26 10:00:00 27.5 4 Sur 9 Sur 0 1004.4 0.4 57
2019-07-26 09:00:00 24.9 5 Oeste 12 Oeste 0 1004.5 0.2 66
2019-07-26 08:00:00 23.3 7 Oeste 11 Oeste 0 1004.4 0 63
2019-07-26 07:00:00 22.3 6 Oeste 8 Oeste 0 1004 -0.5 69
2019-07-26 06:00:00 22.7 4 Oeste 9 Oeste 0 1004.3 -0.8 78
2019-07-26 05:00:00 23.7 5 Sudoeste 8 Sudoeste 0 1004.4 -1.2 78
2019-07-26 04:00:00 24 3 Oeste 9 Sur 0 1004.5 -1.8 80
2019-07-26 03:00:00 24.6 4 Oeste 8 Este 0 1005.1 -1.4 86
2019-07-26 02:00:00 25.1 6 Este 12 Este 0 1005.6 -0.8 85
2019-07-26 01:00:00 25.4 9 Nordeste 16 Este 0 1006.3 0.8 83
2019-07-26 00:00:00 25.9 12 Nordeste 19 Este 0 1006.5 1.4 82
2019-07-25 23:00:00 26.8 12 Este 19 Nordeste 0 1006.4 1.9 74
2019-07-25 22:00:00 28.3 15 Nordeste 23 Nordeste 0 1005.5 1.1 52
2019-07-25 21:00:00 30.1 15 Nordeste 24 Nordeste 0 1005.1 0.3 45
2019-07-25 20:00:00 32.3 14 Este 30 Este 0 1004.5 -0.7 36
2019-07-25 19:00:00 34.4 15 Este 29 Este 0 1004.4 -1.2 29
2019-07-25 18:00:00 35.2 18 Este 33 Este 0 1004.8 -1.4 28
2019-07-25 17:00:00 35.6 23 Nordeste 34 Este 0 1005.2 -1.4 27
2019-07-25 16:00:00 36.1 21 Nordeste 32 Nordeste 0 1005.6 -1.4 26
2019-07-25 15:00:00 36.1 22 Nordeste 36 Nordeste 0 1006.2 -1.2 27
2019-07-25 14:00:00 35.5 16 Este 26 Nordeste 0 1006.6 -1.1 28
2019-07-25 13:00:00 34.5 14 Este 23 Este 0 1007 -0.8 26
2019-07-25 12:00:00 33.5 8 Este 18 Nordeste 0 1007.4 -0.4 24
2019-07-25 11:00:00 31.1 4 Sudeste 8 Sur 0 1007.7 0 32
2019-07-25 10:00:00 27.8 4 Sur 9 Oeste 0 1007.8 0.6 39
2019-07-25 09:00:00 24.8 5 Noroeste 11 Oeste 0 1007.8 0.8 47
2019-07-25 08:00:00 23.2 6 Sudoeste 12 Oeste 0 1007.7 0.8 57
2019-07-25 07:00:00 22 4 Oeste 12 Oeste 0 1007.2 -0.1 57
2019-07-25 06:00:00 23.1 6 Sudoeste 13 Oeste 0 1007 -0.7 57
2019-07-25 05:00:00 23.5 5 Oeste 10 Noroeste 0 1006.9 -1.1 60
2019-07-25 04:00:00 23.4 3 Oeste 8 Noroeste 0 1007.3 -0.7 64
2019-07-25 03:00:00 24.2 5 Noroeste 8 Noroeste 0 1007.7 -0.2 65
2019-07-25 02:00:00 24.8 2 Noroeste 10 Norte 0 1008 0.3 70
2019-07-25 01:00:00 25.4 5 Norte 10 Nordeste 0 1008 0.8 68
2019-07-25 00:00:00 26.4 8 Nordeste 19 Este 0 1007.9 1.1 64
2019-07-24 23:00:00 27.6 13 Este 19 Este 0 1007.7 1.2 57
2019-07-24 22:00:00 28.9 13 Este 22 Este 0 1007.2 0.7 46
2019-07-24 21:00:00 30.8 13 Este 27 Este 0 1006.8 0.1 40
2019-07-24 20:00:00 32.9 15 Nordeste 30 Este 0 1006.5 -0.7 32
2019-07-24 19:00:00 34.4 19 Nordeste 30 Este 0 1006.5 -0.7 26
2019-07-24 18:00:00 35.3 19 Este 31 Este 0 1006.7 -0.8 25
2019-07-24 17:00:00 35.7 19 Este 35 Nordeste 0 1007.2 -0.9 25
2019-07-24 16:00:00 36.2 20 Este 35 Este 0 1007.2 -1.2 24
2019-07-24 15:00:00 36.2 21 Nordeste 34 Nordeste 0 1007.5 -1.2 21
2019-07-24 14:00:00 36.5 18 Este 30 Este 0 1008.1 -0.9 19
2019-07-24 13:00:00 35.4 12 Este 24 Nordeste 0 1008.4 -0.6 19
2019-07-24 12:00:00 33.9 8 Este 16 Sudeste 0 1008.7 -0.3 22
2019-07-24 11:00:00 31.4 5 Sudoeste 12 Oeste 0 1009 0.3 27
2019-07-24 10:00:00 28.1 6 Oeste 12 Oeste 0 1009 0.8 37
2019-07-24 09:00:00 25.6 5 Oeste 13 Sudoeste 0 1009 0.8 42
2019-07-24 08:00:00 23.3 8 Oeste 14 Oeste 0 1008.7 0.2 46
2019-07-24 07:00:00 22.8 5 Norte 11 Noroeste 0 1008.2 -0.6 50
2019-07-24 06:00:00 22.8 5 Norte 11 Norte 0 1008.2 -0.8 49
2019-07-24 05:00:00 23.9 8 Oeste 12 Oeste 0 1008.5 -0.6 49
2019-07-24 04:00:00 24.4 4 Sudoeste 6 Oeste 0 1008.8 -0.4 50
2019-07-24 03:00:00 24.9 4 Oeste 9 Noroeste 0 1009 -0.4 50
2019-07-24 02:00:00 25.8 6 Oeste 8 Oeste 0 1009.1 0.2 48
2019-07-24 01:00:00 26.5 5 Norte 10 Este 0 1009.2 1.1 47
2019-07-24 00:00:00 26.9 6 Nordeste 14 Nordeste 0 1009.4 1.4 47
2019-07-23 23:00:00 27.8 10 Nordeste 20 Este 0 1008.9 1.1 45
2019-07-23 22:00:00 29.4 12 Nordeste 23 Este 0 1008.1 0.3 39
2019-07-23 21:00:00 31.7 10 Este 22 Este 0 1008 0.1 31
2019-07-23 20:00:00 33.7 13 Este 26 Este 0 1007.8 -0.5 20
2019-07-23 19:00:00 34.9 17 Este 31 Este 0 1007.8 -1 20
2019-07-23 18:00:00 35.6 19 Nordeste 32 Este 0 1007.9 -1.4 22
2019-07-23 17:00:00 36.6 19 Este 31 Este 0 1008.3 -1.4 18
2019-07-23 16:00:00 36.6 19 Este 31 Este 0 1008.8 -1.2 17
2019-07-23 15:00:00 36.3 14 Este 35 Nordeste 0 1009.3 -1.1 19
2019-07-23 14:00:00 35.6 20 Nordeste 32 Este 0 1009.7 -1 19
2019-07-23 13:00:00 34.5 12 Nordeste 24 Nordeste 0 1010 -1 23
2019-07-23 12:00:00 33.1 11 Este 20 Este 0 1010.4 -0.5 24
2019-07-23 11:00:00 30.9 3 Oeste 19 Oeste 0 1010.7 -0.2 33
2019-07-23 10:00:00 28 11 Oeste 16 Noroeste 0 1011 0.3 42
2019-07-23 09:00:00 25.1 6 Oeste 13 Noroeste 0 1010.9 0.1 53
2019-07-23 08:00:00 23.1 6 Noroeste 17 Sudoeste 0 1010.9 0.1 55
2019-07-23 07:00:00 22.4 6 Sur 13 Sudoeste 0 1010.7 -0.6 62
2019-07-23 06:00:00 22.6 3 Sudeste 10 Noroeste 0 1010.8 -0.7 64
2019-07-23 05:00:00 23.2 3 Sudoeste 9 Noroeste 0 1010.8 -1 61
2019-07-23 04:00:00 24.1 4 Sudoeste 12 Oeste 0 1011.3 -0.9 58
2019-07-23 03:00:00 24.2 6 Oeste 10 Oeste 0 1011.5 -0.7 60
2019-07-23 02:00:00 24.6 4 Oeste 7 Oeste 0 1011.8 -0.3 65
2019-07-23 01:00:00 25.5 2 Oeste 10 Nordeste 0 1012.2 0.5 62
2019-07-23 00:00:00 26 6 Nordeste 10 Nordeste 0 1012.2 0.6 62
2019-07-22 23:00:00 26.9 4 Nordeste 13 Este 0 1012.1 1 59
2019-07-22 22:00:00 28.4 10 Este 17 Nordeste 0 1011.7 0.7 51
2019-07-22 21:00:00 29.9 10 Este 28 Este 0 1011.6 0.4 43
2019-07-22 20:00:00 31.7 14 Este 32 Este 0 1011.1 -0.6 36
2019-07-22 19:00:00 32.6 16 Este 37 Este 0 1011 -1 34
2019-07-22 18:00:00 33.6 23 Nordeste 38 Este 0 1011.2 -1.3 27
2019-07-22 17:00:00 33.9 20 Este 39 Nordeste 0 1011.7 -1.3 28
2019-07-22 16:00:00 34.3 23 Nordeste 40 Este 0 1012 -1.3 29
2019-07-22 15:00:00 34 22 Este 37 Este 0 1012.5 -1 31
2019-07-22 14:00:00 34 20 Este 33 Nordeste 0 1013 -0.5 26
2019-07-22 13:00:00 34 18 Nordeste 33 Nordeste 0 1013.3 -0.3 28
2019-07-22 12:00:00 32.1 21 Este 31 Este 0 1013.5 0.1 32
2019-07-22 11:00:00 30.4 17 Nordeste 30 Este 0 1013.5 0.4 43
2019-07-22 10:00:00 29.3 13 Nordeste 21 Este 0 1013.6 1 48
2019-07-22 09:00:00 26.4 7 Noroeste 12 Noroeste 0 1013.4 1 54
2019-07-22 08:00:00 24.2 3 Oeste 12 Sudoeste 0 1013.1 0.7 65
2019-07-22 07:00:00 23.6 4 Sur 9 Sudoeste 0 1012.6 -0.1 68
2019-07-22 06:00:00 24 2 Oeste 6 Oeste 0 1012.4 -0.3 65
2019-07-22 05:00:00 24.7 3 Sur 11 Oeste 0 1012.4 -0.9 68
2019-07-22 04:00:00 25.8 6 Oeste 10 Oeste 0 1012.7 -1 67
2019-07-22 03:00:00 26.3 3 Norte 8 Sudoeste 0 1012.7 -1 60
2019-07-22 02:00:00 26.6 5 Noroeste 10 Nordeste 0 1013.3 -0.2 64
2019-07-22 01:00:00 26.5 9 Nordeste 12 Nordeste 0 1013.7 1.1 62
2019-07-22 00:00:00 26.4 7 Nordeste 15 Nordeste 0 1013.7 2.2 68